createdAt,value
2018-01-21T00:00:23.667Z,99.90
2018-01-21T00:02:51.225Z,99.90
2018-01-21T00:05:18.749Z,99.90
2018-01-21T00:07:47.115Z,99.90
2018-01-21T00:10:14.620Z,99.90
2018-01-21T00:12:42.932Z,99.90
2018-01-21T00:15:10.490Z,99.90
2018-01-21T00:17:38.195Z,99.90
2018-01-21T00:20:05.744Z,99.90
2018-01-21T00:22:41.103Z,99.90
2018-01-21T00:25:08.667Z,99.90
2018-01-21T00:27:36.197Z,99.90
2018-01-21T00:30:03.781Z,99.90
2018-01-21T00:32:32.136Z,99.90
2018-01-21T00:34:59.689Z,99.90
2018-01-21T00:37:27.205Z,99.90
2018-01-21T00:39:54.760Z,99.90
2018-01-21T00:42:22.268Z,99.90
2018-01-21T00:44:49.866Z,99.90
2018-01-21T00:47:17.431Z,99.90
2018-01-21T00:49:45.703Z,99.90
2018-01-21T00:52:14.016Z,99.90
2018-01-21T00:54:41.536Z,99.90
2018-01-21T00:57:09.083Z,99.90
2018-01-21T00:59:36.623Z,99.90
2018-01-21T01:02:05.007Z,99.90
2018-01-21T01:04:33.284Z,99.90
2018-01-21T01:07:01.612Z,99.90
2018-01-21T01:09:29.124Z,99.90
2018-01-21T01:11:56.681Z,99.90
2018-01-21T01:14:24.203Z,99.90
2018-01-21T01:16:51.760Z,99.90
2018-01-21T01:19:20.084Z,99.90
2018-01-21T01:21:47.641Z,99.90
2018-01-21T01:24:15.156Z,99.90
2018-01-21T01:26:42.707Z,99.90
2018-01-21T01:29:10.227Z,99.90
2018-01-21T01:31:37.801Z,99.90
2018-01-21T01:34:05.363Z,99.90
2018-01-21T01:36:32.884Z,99.90
2018-01-21T01:39:00.447Z,99.90
2018-01-21T01:41:28.724Z,99.70
2018-01-21T01:43:57.047Z,99.50
2018-01-21T01:46:24.563Z,99.50
2018-01-21T01:48:55.810Z,99.50
2018-01-21T01:51:23.340Z,99.40
2018-01-21T01:53:50.891Z,99.40
2018-01-21T01:56:19.175Z,99.40
2018-01-21T01:58:46.750Z,99.40
2018-01-21T02:01:14.283Z,99.20
2018-01-21T02:03:41.816Z,99.00
2018-01-21T02:06:09.379Z,99.30
2018-01-21T02:08:37.669Z,99.80
2018-01-21T02:11:06.001Z,99.70
2018-01-21T02:13:33.593Z,99.70
2018-01-21T02:16:01.168Z,99.90
2018-01-21T02:18:28.735Z,99.70
2018-01-21T02:20:56.263Z,99.90
2018-01-21T02:23:23.774Z,99.90
2018-01-21T02:25:51.322Z,99.90
2018-01-21T02:28:18.839Z,99.90
2018-01-21T02:30:46.399Z,99.90
2018-01-21T02:33:13.910Z,99.90
2018-01-21T02:35:42.230Z,99.90
2018-01-21T02:38:09.795Z,99.90
2018-01-21T02:40:37.325Z,99.80
2018-01-21T02:43:05.667Z,99.90
2018-01-21T02:45:33.199Z,99.90
2018-01-21T02:48:01.533Z,99.90
2018-01-21T02:50:29.044Z,99.90
2018-01-21T02:52:57.464Z,99.90
2018-01-21T02:55:24.981Z,99.90
2018-01-21T02:57:52.531Z,99.90
2018-01-21T03:00:20.092Z,99.90
2018-01-21T03:02:47.647Z,99.90
2018-01-21T03:05:15.163Z,99.90
2018-01-21T03:07:42.719Z,99.90
2018-01-21T03:10:10.238Z,99.90
2018-01-21T03:12:37.748Z,99.90
2018-01-21T03:15:05.301Z,99.90
2018-01-21T03:17:33.582Z,99.90
2018-01-21T03:20:01.898Z,99.90
2018-01-21T03:22:29.411Z,99.90
2018-01-21T03:24:56.959Z,99.90
2018-01-21T03:27:24.468Z,99.90
2018-01-21T03:29:52.036Z,99.90
2018-01-21T03:32:19.545Z,99.90
2018-01-21T03:34:47.867Z,99.90
2018-01-21T03:37:15.390Z,99.90
2018-01-21T03:39:42.903Z,99.90
2018-01-21T03:42:10.448Z,99.90
2018-01-21T03:44:37.959Z,99.90
2018-01-21T03:47:05.544Z,99.90
2018-01-21T03:49:33.159Z,99.90
2018-01-21T03:52:01.470Z,99.90
2018-01-21T03:54:28.989Z,99.90
2018-01-21T03:56:56.536Z,99.90
2018-01-21T03:59:24.057Z,99.90
2018-01-21T04:01:52.392Z,99.70
2018-01-21T04:04:19.948Z,99.70
2018-01-21T04:06:47.503Z,98.80
2018-01-21T04:09:15.782Z,98.20
2018-01-21T04:11:43.297Z,98.20
2018-01-21T04:14:10.851Z,98.40
2018-01-21T04:16:38.371Z,98.70
2018-01-21T04:19:05.914Z,99.10
2018-01-21T04:21:33.453Z,99.30
2018-01-21T04:24:01.768Z,99.40
2018-01-21T04:26:29.303Z,99.40
2018-01-21T04:28:57.087Z,99.40
2018-01-21T04:31:25.375Z,99.70
2018-01-21T04:33:53.726Z,99.90
2018-01-21T04:36:21.241Z,99.80
2018-01-21T04:38:49.564Z,99.90
2018-01-21T04:41:17.072Z,99.90
2018-01-21T04:43:44.628Z,99.90
2018-01-21T04:46:12.139Z,99.90
2018-01-21T04:48:39.657Z,99.90
2018-01-21T04:51:07.209Z,99.90
2018-01-21T04:53:34.721Z,99.90
2018-01-21T04:56:02.283Z,99.90
2018-01-21T04:58:29.796Z,99.90
2018-01-21T05:00:57.344Z,99.90
2018-01-21T05:03:24.857Z,99.90
2018-01-21T05:05:53.175Z,99.90
2018-01-21T05:08:20.678Z,99.90
2018-01-21T05:10:48.216Z,99.90
2018-01-21T05:13:15.727Z,99.90
2018-01-21T05:15:43.275Z,99.90
2018-01-21T05:18:10.793Z,99.90
2018-01-21T05:20:38.339Z,99.90
2018-01-21T05:23:05.854Z,99.90
2018-01-21T05:25:34.170Z,99.90
2018-01-21T05:28:01.679Z,99.90
2018-01-21T05:30:29.195Z,99.90
2018-01-21T05:32:56.743Z,99.90
2018-01-21T05:35:24.259Z,99.90
2018-01-21T05:37:51.846Z,99.90
2018-01-21T05:40:19.363Z,99.90
2018-01-21T05:42:47.687Z,99.90
2018-01-21T05:45:15.206Z,99.90
2018-01-21T05:47:42.760Z,99.90
2018-01-21T05:50:10.282Z,99.90
2018-01-21T05:52:38.590Z,99.90
2018-01-21T05:55:06.108Z,99.90
2018-01-21T05:57:33.651Z,99.90
2018-01-21T06:00:01.155Z,99.90
2018-01-21T06:02:28.704Z,99.90
2018-01-21T06:04:56.216Z,99.90
2018-01-21T06:07:24.495Z,99.90
2018-01-21T06:09:52.043Z,99.90
2018-01-21T06:12:19.551Z,99.90
2018-01-21T06:14:47.883Z,99.90
2018-01-21T06:17:15.400Z,99.90
2018-01-21T06:19:42.952Z,99.90
2018-01-21T06:22:10.479Z,99.90
2018-01-21T06:24:38.032Z,99.90
2018-01-21T06:27:06.319Z,99.90
2018-01-21T06:29:33.876Z,99.90
2018-01-21T06:32:01.387Z,99.90
2018-01-21T06:34:28.955Z,99.90
2018-01-21T06:36:56.465Z,99.90
2018-01-21T06:39:24.743Z,99.90
2018-01-21T06:41:52.303Z,99.90
2018-01-21T06:44:19.815Z,99.90
2018-01-21T06:46:47.375Z,99.90
2018-01-21T06:49:14.890Z,99.90
2018-01-21T06:51:42.437Z,99.90
2018-01-21T06:54:09.955Z,99.90
2018-01-21T06:56:37.507Z,99.90
2018-01-21T06:59:05.787Z,99.90
2018-01-21T07:01:34.123Z,99.90
2018-01-21T07:04:01.655Z,99.90
2018-01-21T07:06:29.936Z,99.90
2018-01-21T07:08:57.487Z,99.90
2018-01-21T07:11:25.006Z,99.90
2018-01-21T07:13:52.934Z,99.90
2018-01-21T07:16:20.455Z,99.90
2018-01-21T07:18:48.001Z,99.90
2018-01-21T07:21:15.534Z,99.90
2018-01-21T07:23:43.086Z,99.90
2018-01-21T07:26:10.613Z,99.90
2018-01-21T07:28:38.162Z,99.90
2018-01-21T07:31:05.668Z,99.90
2018-01-21T07:33:34.009Z,99.90
2018-01-21T07:36:01.539Z,99.90
2018-01-21T07:38:29.852Z,99.90
2018-01-21T07:40:57.356Z,99.90
2018-01-21T07:43:24.911Z,99.90
2018-01-21T07:45:52.423Z,99.90
2018-01-21T07:48:19.934Z,99.90
2018-01-21T07:50:47.484Z,99.90
2018-01-21T07:53:15.767Z,99.90
2018-01-21T07:55:44.185Z,99.90
2018-01-21T07:58:11.699Z,99.90
2018-01-21T08:00:39.252Z,99.80
2018-01-21T08:03:06.772Z,99.70
2018-01-21T08:05:35.274Z,99.60
2018-01-21T08:08:02.887Z,99.60
2018-01-21T08:10:30.455Z,99.30
2018-01-21T08:12:57.971Z,99.30
2018-01-21T08:15:25.493Z,99.30
2018-01-21T08:17:53.035Z,99.10
2018-01-21T08:20:21.479Z,99.30
2018-01-21T08:22:49.065Z,99.00
2018-01-21T08:25:16.645Z,98.80
2018-01-21T08:27:44.579Z,98.50
2018-01-21T08:30:12.113Z,98.30
2018-01-21T08:32:39.666Z,98.10
2018-01-21T08:35:12.964Z,97.90
2018-01-21T08:37:46.259Z,97.80
2018-01-21T08:40:19.420Z,97.60
2018-01-21T08:42:47.738Z,97.50
2018-01-21T08:45:15.251Z,97.40
2018-01-21T08:47:42.921Z,97.50
2018-01-21T08:50:10.438Z,97.50
2018-01-21T08:52:38.731Z,97.10
2018-01-21T08:55:07.044Z,97.00
2018-01-21T08:57:34.555Z,97.00
2018-01-21T09:00:02.110Z,96.50
2018-01-21T09:02:29.628Z,96.40
2018-01-21T09:04:57.207Z,96.40
2018-01-21T09:07:25.489Z,96.10
2018-01-21T09:09:53.821Z,96.50
2018-01-21T09:12:21.330Z,96.40
2018-01-21T09:14:48.835Z,96.10
2018-01-21T09:17:16.392Z,96.30
2018-01-21T09:19:44.666Z,95.80
2018-01-21T09:22:12.990Z,95.90
2018-01-21T09:24:40.503Z,95.90
2018-01-21T09:27:08.055Z,96.10
2018-01-21T09:29:35.579Z,95.70
2018-01-21T09:32:03.892Z,95.50
2018-01-21T09:34:31.399Z,95.50
2018-01-21T09:36:58.962Z,95.70
2018-01-21T09:39:26.479Z,95.80
2018-01-21T09:41:53.991Z,95.30
2018-01-21T09:44:21.535Z,95.10
2018-01-21T09:46:49.811Z,94.50
2018-01-21T09:49:17.361Z,94.40
2018-01-21T09:51:44.876Z,94.70
2018-01-21T09:54:12.419Z,94.40
2018-01-21T09:56:39.930Z,94.00
2018-01-21T09:59:07.484Z,93.70
2018-01-21T10:01:34.988Z,93.30
2018-01-21T10:04:02.539Z,93.50
2018-01-21T10:06:30.059Z,93.30
2018-01-21T10:08:57.604Z,93.30
2018-01-21T10:11:25.123Z,93.30
2018-01-21T10:13:52.682Z,93.40
2018-01-21T10:16:20.195Z,93.30
2018-01-21T10:18:48.468Z,93.30
2018-01-21T10:21:16.046Z,93.30
2018-01-21T10:23:44.332Z,93.50
2018-01-21T10:26:11.904Z,93.50
2018-01-21T10:28:39.411Z,93.50
2018-01-21T10:31:06.963Z,93.10
2018-01-21T10:33:34.499Z,92.80
2018-01-21T10:36:02.140Z,92.60
2018-01-21T10:38:29.659Z,92.20
2018-01-21T10:40:57.223Z,92.10
2018-01-21T10:43:24.769Z,92.20
2018-01-21T10:45:52.336Z,92.50
2018-01-21T10:48:19.876Z,92.40
2018-01-21T10:50:47.467Z,92.50
2018-01-21T10:53:15.117Z,92.40
2018-01-21T10:55:42.736Z,92.70
2018-01-21T10:58:10.671Z,92.40
2018-01-21T11:00:43.936Z,92.40
2018-01-21T11:03:11.584Z,92.10
2018-01-21T11:05:39.166Z,91.90
2018-01-21T11:08:06.742Z,92.20
2018-01-21T11:10:34.280Z,92.50
2018-01-21T11:13:01.885Z,92.10
2018-01-21T11:15:29.392Z,92.20
2018-01-21T11:17:57.675Z,91.80
2018-01-21T11:20:25.235Z,91.80
2018-01-21T11:22:52.749Z,91.70
2018-01-21T11:25:20.306Z,92.20
2018-01-21T11:27:47.943Z,92.10
2018-01-21T11:30:15.498Z,92.10
2018-01-21T11:32:43.027Z,91.60
2018-01-21T11:35:10.580Z,91.10
2018-01-21T11:37:38.148Z,91.00
2018-01-21T11:40:05.703Z,90.50
2018-01-21T11:42:33.218Z,90.10
2018-01-21T11:45:00.763Z,89.40
2018-01-21T11:47:28.295Z,88.60
2018-01-21T11:49:55.855Z,89.90
2018-01-21T11:52:23.367Z,90.60
2018-01-21T11:54:50.936Z,90.50
2018-01-21T11:57:18.444Z,90.80
2018-01-21T11:59:46.081Z,90.70
2018-01-21T12:02:13.658Z,90.90
2018-01-21T12:04:41.183Z,91.50
2018-01-21T12:07:09.505Z,91.30
2018-01-21T12:09:37.025Z,91.30
2018-01-21T12:12:04.575Z,90.80
2018-01-21T12:14:32.083Z,90.70
2018-01-21T12:16:59.643Z,90.70
2018-01-21T12:19:27.147Z,90.80
2018-01-21T12:21:54.691Z,90.90
2018-01-21T12:24:22.979Z,90.80
2018-01-21T12:26:50.534Z,90.40
2018-01-21T12:29:18.040Z,88.30
2018-01-21T12:31:45.591Z,86.80
2018-01-21T12:34:13.097Z,86.40
2018-01-21T12:36:40.616Z,85.90
2018-01-21T12:39:08.171Z,84.90
2018-01-21T12:41:35.691Z,85.20
2018-01-21T12:44:04.007Z,83.10
2018-01-21T12:46:31.532Z,83.20
2018-01-21T12:48:59.083Z,83.20
2018-01-21T12:51:26.607Z,84.30
2018-01-21T12:53:54.162Z,84.20
2018-01-21T12:56:22.455Z,86.80
2018-01-21T12:58:50.772Z,87.60
2018-01-21T13:01:18.316Z,87.60
2018-01-21T13:03:46.592Z,87.40
2018-01-21T13:06:14.156Z,87.40
2018-01-21T13:08:41.675Z,87.70
2018-01-21T13:11:09.227Z,88.40
2018-01-21T13:13:37.506Z,86.70
2018-01-21T13:16:05.835Z,86.80
2018-01-21T13:18:33.356Z,86.80
2018-01-21T13:21:00.912Z,85.90
2018-01-21T13:23:28.421Z,85.10
2018-01-21T13:25:55.995Z,84.10
2018-01-21T13:28:24.272Z,82.50
2018-01-21T13:30:51.775Z,82.50
2018-01-21T13:33:19.319Z,82.40
2018-01-21T13:35:46.864Z,81.00
2018-01-21T13:38:14.465Z,81.50
2018-01-21T13:40:42.736Z,79.30
2018-01-21T13:43:10.287Z,79.30
2018-01-21T13:45:37.805Z,78.70
2018-01-21T13:48:05.363Z,80.80
2018-01-21T13:50:33.713Z,80.90
2018-01-21T13:53:01.277Z,80.90
2018-01-21T13:55:28.787Z,79.10
2018-01-21T13:57:56.350Z,79.20
2018-01-21T14:00:23.859Z,79.20
2018-01-21T14:02:51.427Z,78.60
2018-01-21T14:05:18.943Z,79.00
2018-01-21T14:07:46.491Z,78.40
2018-01-21T14:10:14.169Z,77.30
2018-01-21T14:12:41.682Z,77.10
2018-01-21T14:15:09.242Z,76.60
2018-01-21T14:17:36.763Z,77.00
2018-01-21T14:20:04.333Z,77.60
2018-01-21T14:22:32.602Z,78.90
2018-01-21T14:25:00.159Z,78.80
2018-01-21T14:27:27.659Z,80.60
2018-01-21T14:29:55.215Z,80.80
2018-01-21T14:32:22.727Z,81.40
2018-01-21T14:34:50.294Z,82.50
2018-01-21T14:37:18.579Z,84.40
2018-01-21T14:39:46.155Z,84.30
2018-01-21T14:42:13.675Z,84.70
2018-01-21T14:44:41.231Z,84.90
2018-01-21T14:47:08.785Z,86.00
2018-01-21T14:49:36.312Z,86.20
2018-01-21T14:52:04.807Z,86.70
2018-01-21T14:54:33.115Z,87.60
2018-01-21T14:57:01.443Z,86.90
2018-01-21T14:59:28.986Z,86.90
2018-01-21T15:01:57.310Z,86.50
2018-01-21T15:04:24.854Z,86.50
2018-01-21T15:06:53.172Z,85.70
2018-01-21T15:09:20.692Z,85.70
2018-01-21T15:11:48.315Z,85.20
2018-01-21T15:14:15.827Z,85.60
2018-01-21T15:16:43.389Z,85.20
2018-01-21T15:19:11.658Z,86.60
2018-01-21T15:21:39.214Z,86.60
2018-01-21T15:24:06.726Z,86.50
2018-01-21T15:26:34.282Z,86.90
2018-01-21T15:29:01.851Z,87.20
2018-01-21T15:31:29.360Z,87.40
2018-01-21T15:33:56.907Z,87.70
2018-01-21T15:36:24.444Z,87.80
2018-01-21T15:38:51.996Z,87.30
2018-01-21T15:41:19.499Z,87.10
2018-01-21T15:43:47.043Z,87.30
2018-01-21T15:46:14.596Z,87.10
2018-01-21T15:48:42.184Z,87.60
2018-01-21T15:51:10.459Z,88.50
2018-01-21T15:53:38.771Z,89.00
2018-01-21T15:56:07.059Z,89.80
2018-01-21T15:58:34.639Z,89.80
2018-01-21T16:01:02.143Z,89.70
2018-01-21T16:03:29.650Z,89.50
2018-01-21T16:05:57.203Z,89.10
2018-01-21T16:08:24.702Z,89.40
2018-01-21T16:10:53.056Z,89.80
2018-01-21T16:13:20.571Z,89.80
2018-01-21T16:15:48.919Z,90.20
2018-01-21T16:18:16.431Z,90.20
2018-01-21T16:20:44.806Z,90.70
2018-01-21T16:23:12.318Z,90.70
2018-01-21T16:25:39.874Z,90.90
2018-01-21T16:28:08.186Z,91.60
2018-01-21T16:30:35.693Z,91.60
2018-01-21T16:33:03.246Z,91.90
2018-01-21T16:35:30.757Z,92.30
2018-01-21T16:38:10.148Z,92.10
2018-01-21T16:40:37.667Z,92.10
2018-01-21T16:43:05.224Z,91.80
2018-01-21T16:45:32.752Z,91.80
2018-01-21T16:48:00.339Z,91.70
2018-01-21T16:50:27.891Z,92.00
2018-01-21T16:52:56.216Z,91.60
2018-01-21T16:55:23.728Z,91.60
2018-01-21T16:57:51.234Z,91.60
2018-01-21T17:00:18.781Z,91.40
2018-01-21T17:02:46.295Z,91.40
2018-01-21T17:05:13.875Z,91.10
2018-01-21T17:07:41.408Z,91.40
2018-01-21T17:10:09.731Z,91.80
2018-01-21T17:12:37.239Z,91.70
2018-01-21T17:15:04.804Z,91.90
2018-01-21T17:17:32.311Z,91.90
2018-01-21T17:20:00.626Z,92.20
2018-01-21T17:22:28.134Z,92.20
2018-01-21T17:24:55.687Z,92.20
2018-01-21T17:27:23.199Z,92.50
2018-01-21T17:29:50.755Z,92.60
2018-01-21T17:32:18.281Z,92.70
2018-01-21T17:34:45.856Z,92.40
2018-01-21T17:37:13.400Z,92.60
2018-01-21T17:39:41.739Z,92.80
2018-01-21T17:42:09.288Z,92.60
2018-01-21T17:44:36.861Z,92.80
2018-01-21T17:47:04.416Z,92.90
2018-01-21T17:49:32.696Z,92.90
2018-01-21T17:52:01.016Z,92.90
2018-01-21T17:54:28.531Z,92.90
2018-01-21T17:56:56.084Z,92.90
2018-01-21T17:59:23.591Z,93.10
2018-01-21T18:01:51.155Z,93.10
2018-01-21T18:04:18.667Z,93.30
2018-01-21T18:06:46.231Z,93.30
2018-01-21T18:09:13.753Z,93.50
2018-01-21T18:11:41.315Z,92.60
2018-01-21T18:14:08.898Z,92.60
2018-01-21T18:16:36.454Z,92.70
2018-01-21T18:19:04.004Z,92.70
2018-01-21T18:21:31.520Z,93.00
2018-01-21T18:23:59.115Z,93.50
2018-01-21T18:26:26.630Z,93.40
2018-01-21T18:28:54.202Z,93.20
2018-01-21T18:31:21.711Z,93.10
2018-01-21T18:33:49.259Z,93.10
2018-01-21T18:36:16.823Z,93.10
2018-01-21T18:38:44.394Z,92.70
2018-01-21T18:41:11.899Z,92.70
2018-01-21T18:43:39.464Z,92.90
2018-01-21T18:46:06.977Z,92.90
2018-01-21T18:48:35.363Z,93.60
2018-01-21T18:51:03.684Z,93.60
2018-01-21T18:53:31.231Z,93.60
2018-01-21T18:55:59.617Z,93.50
2018-01-21T18:58:27.936Z,93.60
2018-01-21T19:00:55.495Z,93.50
2018-01-21T19:03:23.763Z,93.50
2018-01-21T19:05:51.319Z,93.50
2018-01-21T19:08:18.818Z,93.20
2018-01-21T19:10:46.368Z,93.20
2018-01-21T19:13:13.867Z,92.90
2018-01-21T19:15:42.208Z,92.50
2018-01-21T19:18:09.723Z,92.50
2018-01-21T19:20:37.295Z,92.80
2018-01-21T19:23:04.802Z,92.90
2018-01-21T19:25:32.363Z,92.80
2018-01-21T19:27:59.951Z,92.40
2018-01-21T19:30:27.476Z,92.60
2018-01-21T19:32:55.047Z,92.40
2018-01-21T19:35:22.547Z,92.40
2018-01-21T19:37:50.885Z,92.10
2018-01-21T19:40:34.240Z,92.10
2018-01-21T19:43:02.386Z,91.90
2018-01-21T19:45:29.903Z,91.80
2018-01-21T19:47:57.451Z,91.50
2018-01-21T19:50:24.988Z,91.40
2018-01-21T19:52:52.527Z,91.40
2018-01-21T19:55:20.032Z,91.10
2018-01-21T19:57:47.579Z,91.00
2018-01-21T20:00:15.108Z,91.00
2018-01-21T20:02:43.639Z,91.20
2018-01-21T20:05:11.178Z,91.20
2018-01-21T20:07:38.790Z,91.50
2018-01-21T20:10:06.289Z,91.30
2018-01-21T20:12:33.912Z,91.10
2018-01-21T20:15:01.424Z,91.30
2018-01-21T20:17:29.746Z,91.40
2018-01-21T20:19:57.261Z,91.40
2018-01-21T20:22:24.784Z,91.40
2018-01-21T20:24:52.364Z,91.50
2018-01-21T20:27:19.905Z,91.20
2018-01-21T20:29:47.485Z,91.40
2018-01-21T20:32:15.028Z,91.20
2018-01-21T20:34:42.617Z,91.30
2018-01-21T20:37:10.182Z,91.80
2018-01-21T20:39:37.730Z,91.80
2018-01-21T20:42:05.356Z,91.60
2018-01-21T20:44:32.938Z,91.60
2018-01-21T20:47:00.532Z,90.90
2018-01-21T20:49:28.408Z,90.90
2018-01-21T20:52:01.631Z,90.90
2018-01-21T20:54:34.760Z,90.80
2018-01-21T20:57:02.319Z,90.70
2018-01-21T20:59:29.825Z,90.60
2018-01-21T21:01:57.376Z,90.70
2018-01-21T21:04:24.886Z,90.70
2018-01-21T21:06:53.203Z,90.60
2018-01-21T21:09:20.723Z,90.60
2018-01-21T21:11:48.307Z,90.60
2018-01-21T21:14:16.579Z,90.10
2018-01-21T21:16:44.136Z,90.10
2018-01-21T21:19:11.646Z,90.00
2018-01-21T21:21:39.972Z,89.80
2018-01-21T21:24:07.507Z,89.80
2018-01-21T21:26:36.006Z,90.10
2018-01-21T21:29:04.294Z,89.60
2018-01-21T21:31:32.577Z,90.00
2018-01-21T21:34:00.903Z,89.70
2018-01-21T21:36:28.417Z,89.70
2018-01-21T21:38:55.964Z,88.30
2018-01-21T21:41:23.480Z,88.80
2018-01-21T21:43:51.038Z,88.30
2018-01-21T21:46:18.555Z,88.20
2018-01-21T21:48:46.113Z,88.90
2018-01-21T21:51:14.391Z,89.40
2018-01-21T21:53:42.707Z,89.40
2018-01-21T21:56:10.226Z,89.40
2018-01-21T21:58:37.803Z,90.20
2018-01-21T22:01:05.312Z,90.40
2018-01-21T22:03:33.655Z,90.80
2018-01-21T22:06:01.229Z,90.70
2018-01-21T22:08:28.735Z,91.20
2018-01-21T22:10:56.283Z,91.50
2018-01-21T22:13:23.796Z,92.20
2018-01-21T22:15:51.360Z,92.60
2018-01-21T22:18:18.862Z,92.90
2018-01-21T22:20:46.451Z,93.00
2018-01-21T22:23:14.738Z,93.90
2018-01-21T22:25:42.949Z,93.90
2018-01-21T22:28:10.463Z,94.20
2018-01-21T22:30:38.011Z,94.50
2018-01-21T22:33:06.698Z,95.60
2018-01-21T22:35:34.290Z,95.60
2018-01-21T22:38:01.832Z,95.70
2018-01-21T22:40:29.389Z,95.80
2018-01-21T22:42:56.959Z,95.90
2018-01-21T22:45:24.487Z,96.00
2018-01-21T22:47:52.062Z,96.10
2018-01-21T22:50:19.572Z,96.40
2018-01-21T22:52:47.117Z,96.60
2018-01-21T22:55:14.649Z,96.80
2018-01-21T22:57:42.205Z,96.90
2018-01-21T23:00:09.723Z,97.20
2018-01-21T23:02:38.052Z,97.40
2018-01-21T23:05:05.806Z,97.40
2018-01-21T23:07:33.322Z,97.60
2018-01-21T23:10:00.870Z,97.30
2018-01-21T23:12:28.391Z,97.70
2018-01-21T23:14:56.705Z,97.80
2018-01-21T23:17:24.227Z,97.80
2018-01-21T23:19:51.771Z,97.90
2018-01-21T23:22:19.282Z,98.10
2018-01-21T23:24:46.831Z,98.40
2018-01-21T23:27:14.382Z,98.00
2018-01-21T23:29:41.940Z,98.30
2018-01-21T23:32:09.458Z,98.20
2018-01-21T23:34:37.023Z,98.10
2018-01-21T23:37:04.555Z,98.00
2018-01-21T23:39:32.099Z,98.30
2018-01-21T23:42:00.375Z,98.50
2018-01-21T23:44:27.943Z,98.50
2018-01-21T23:46:55.464Z,98.60
2018-01-21T23:49:22.978Z,98.70
2018-01-21T23:51:50.520Z,98.60
2018-01-21T23:54:18.067Z,98.30
2018-01-21T23:56:45.614Z,98.40
2018-01-21T23:59:13.127Z,98.20
